Latest Weather Observations for Cunderdin Airport

IDW60801

Issued at 7:33 am WST Monday 4 May 2015 (issued every 30 minutes, with the page automatically refreshed every 10 minutes)

About weather observations | Map of weather stations | Latest weather observations for WA | Other Formats
Station Details ID: 010286 Name: CUNDERDIN AIRFIELD Lat: -31.62 Lon: 117.22 Height: 216.7 m
Data from the previous 72 hours. | See also: Recent months at Cunderdin Airport
Date/Time
WST
Temp
°C
App
Temp
°C
Dew
Point
Rel
Hum
%
Delta-T
°C
Wind Press
QNH
hPa
Press
MSL
hPa
Rain
since 9 am
mm
Dir
 
Spd
km/h
Gust
km/h
Spd
kts
Gust
kts
04/07:30am 8.4 5.2 5.3 81 1.4 W 11 15 6 8 1020.5 1020.2 0.4
04/07:00am 7.0 3.3 4.7 85 1.0 W 13 15 7 8 1019.9 1019.6 0.4
04/06:30am 7.2 2.8 4.7 84 1.1 W 17 28 9 15 1019.6 1019.3 0.4
04/06:00am 7.2 3.6 4.9 85 1.0 WSW 13 15 7 8 1019.1 1018.9 0.4
04/05:30am 8.3 4.3 5.1 80 1.4 WSW 15 19 8 10 1018.5 1018.3 0.4
04/05:00am 9.0 4.5 5.9 81 1.4 SW 19 33 10 18 1018.2 1018.0 0.4
04/04:30am 9.1 4.3 5.7 79 1.6 WSW 20 26 11 14 1017.6 1017.4 0.4
04/04:00am 9.4 4.7 5.9 79 1.6 WSW 20 28 11 15 1017.2 1016.9 0.4
04/03:30am 9.8 4.7 6.0 77 1.8 WSW 22 26 12 14 1016.5 1016.2 0.4
04/03:00am 10.3 4.6 6.5 77 1.8 WSW 26 32 14 17 1016.2 1015.9 0.4
04/02:30am 10.8 4.8 7.1 78 1.8 WSW 28 33 15 18 1016.0 1015.7 0.4
04/02:00am 10.9 5.0 7.6 80 1.6 WSW 28 39 15 21 1015.6 1015.3 0.4
04/01:30am 11.5 5.1 8.7 83 1.4 WSW 32 41 17 22 1015.0 1014.7 0.4
04/01:00am 12.2 5.1 9.6 84 1.3 WSW 37 52 20 28 1014.7 1014.4 0.4
04/12:36am 12.6 6.3 11.0 90 0.8 WSW 35 54 19 29 1014.3 1014.1 0.4
04/12:30am 13.4 7.1 11.1 86 1.2 W 35 50 19 27 1014.1 1013.9 0.2
04/12:00am 13.6 8.0 11.5 87 1.1 W 32 41 17 22 1013.4 1013.2 0.2
 
Date/Time
WST
Temp
°C
App
Temp
°C
Dew
Point
Rel
Hum
%
Delta-T
°C
Wind Press
QNH
hPa
Press
MSL
hPa
Rain
since 9 am
mm
Dir
 
Spd
km/h
Gust
km/h
Spd
kts
Gust
kts
03/11:30pm 13.5 9.4 11.4 87 1.1 WNW 24 30 13 16 1013.1 1012.8 0.0
03/11:00pm 13.8 9.4 11.7 87 1.1 WNW 26 33 14 18 1013.0 1012.7 0.0
03/10:30pm 14.1 8.6 12.0 87 1.1 WNW 32 39 17 21 1013.0 1012.7 0.0
03/10:00pm 14.2 8.9 12.4 89 1.0 WNW 32 39 17 21 1013.1 1012.8 0.0
03/09:30pm 14.3 8.8 12.3 88 1.1 WNW 33 43 18 23 1013.4 1013.2 0.0
03/09:00pm 14.7 9.8 12.7 88 1.1 W 30 43 16 23 1013.3 1013.0 0.0
03/08:30pm 16.2 13.0 12.0 76 2.3 WNW 20 28 11 15 1013.0 1012.7 0.0
03/08:00pm 16.4 13.3 12.2 76 2.3 WNW 20 28 11 15 1013.1 1012.8 0.0
03/07:30pm 16.4 12.5 12.0 75 2.4 NW 24 28 13 15 1012.8 1012.5 0.0
03/07:00pm 16.8 12.5 11.9 73 2.7 WNW 26 32 14 17 1012.7 1012.4 0.0
03/06:30pm 17.1 12.5 11.2 68 3.2 WNW 26 33 14 18 1012.4 1012.1 0.0
03/06:00pm 18.3 13.2 10.7 61 4.1 NW 28 35 15 19 1012.0 1011.7 0.0
03/05:30pm 18.5 12.3 10.1 58 4.5 WNW 33 41 18 22 1011.6 1011.3 0.0
03/05:00pm 19.6 12.4 9.2 51 5.5 WNW 37 46 20 25 1011.5 1011.2 0.0
03/04:30pm 20.0 13.3 8.0 46 6.3 W 33 46 18 25 1011.5 1011.2 0.0
03/04:00pm 21.5 13.8 7.3 40 7.4 W 37 48 20 26 1011.5 1011.2 0.0
03/03:30pm 22.2 14.1 6.8 37 8.0 WNW 39 59 21 32 1011.4 1011.1 0.0
03/03:22pm 22.1 14.9 7.5 39 7.7 W 35 56 19 30 1011.4 1011.1 0.0
03/03:00pm 21.7 13.8 6.4 37 7.8 W 37 46 20 25 1011.6 1011.3 0.0
03/02:30pm 22.7 15.0 6.9 36 8.2 W 37 52 20 28 1011.7 1011.4 0.0
03/02:23pm 23.2 16.6 7.7 37 8.2 W 32 52 17 28 1011.6 1011.3 0.0
03/02:00pm 22.8 16.1 8.1 39 7.8 W 33 48 18 26 1011.6 1011.3 0.0
03/01:30pm 21.9 14.3 7.7 40 7.5 WNW 37 52 20 28 1011.9 1011.6 0.0
03/01:00pm 22.0 15.2 7.8 40 7.5 WNW 33 43 18 23 1012.1 1011.8 0.0
03/12:30pm 21.7 15.6 8.2 42 7.1 W 30 43 16 23 1012.6 1012.3 0.0
03/12:00pm 21.8 16.0 8.0 41 7.3 W 28 43 15 23 1013.0 1012.7 0.0
03/11:30am 21.2 16.2 8.1 43 6.9 W 24 32 13 17 1013.2 1012.9 0.0
03/11:00am 20.1 15.4 7.8 45 6.4 W 22 32 12 17 1013.5 1013.3 0.0
03/10:30am 19.7 15.6 7.8 46 6.2 WSW 19 28 10 15 1013.8 1013.6 0.0
03/10:00am 19.0 14.8 7.4 47 6.0 WSW 19 28 10 15 1014.0 1013.8 0.0
03/09:30am 18.7 14.3 6.5 45 6.1 SW 19 24 10 13 1014.2 1014.0 0.0
03/09:00am 16.5 14.5 6.9 53 4.8 WSW 7 11 4 6 1014.3 1014.1 0.0
03/08:30am 14.7 12.9 7.0 60 3.8 SSW 6 9 3 5 1014.1 1013.9 0.0
03/08:00am 13.8 13.1 8.4 70 2.7 NW 2 7 1 4 1014.1 1013.9 0.0
03/07:30am 12.1 11.7 8.2 77 1.9 CALM 0 0 0 0 1013.8 1013.6 0.0
03/07:00am 11.5 9.2 7.4 76 2.0 SW 9 13 5 7 1013.7 1013.5 0.0
03/06:30am 12.3 9.5 8.4 77 2.0 WSW 13 15 7 8 1013.6 1013.4 0.0
03/06:00am 11.1 9.0 8.1 82 1.5 W 9 13 5 7 1013.4 1013.2 0.0
03/05:30am 11.5 8.6 8.2 80 1.6 W 13 15 7 8 1013.3 1013.0 0.0
03/05:00am 12.1 9.6 8.2 77 1.9 W 11 15 6 8 1013.1 1012.8 0.0
03/04:30am 12.8 10.0 8.5 75 2.2 WSW 13 15 7 8 1012.9 1012.6 0.0
03/04:00am 14.1 11.8 9.1 72 2.6 SW 11 15 6 8 1012.8 1012.5 0.0
03/03:30am 14.4 12.4 10.0 75 2.3 SW 11 15 6 8 1012.8 1012.5 0.0
03/03:00am 15.5 12.6 8.3 62 3.7 WSW 13 17 7 9 1012.9 1012.6 0.0
03/02:30am 14.8 12.6 7.8 63 3.5 W 9 13 5 7 1012.9 1012.6 0.0
03/02:00am 15.1 13.0 8.1 63 3.6 W 9 13 5 7 1013.0 1012.7 0.0
03/01:30am 15.0 12.5 8.3 64 3.4 W 11 13 6 7 1013.0 1012.7 0.0
03/01:00am 15.1 13.4 8.3 64 3.5 WNW 7 11 4 6 1013.1 1012.8 0.0
03/12:30am 14.9 13.2 8.4 65 3.3 WNW 7 9 4 5 1013.0 1012.7 0.0
03/12:00am 14.9 13.7 8.2 64 3.4 NW 4 6 2 3 1013.3 1013.0 0.0
 
Date/Time
WST
Temp
°C
App
Temp
°C
Dew
Point
Rel
Hum
%
Delta-T
°C
Wind Press
QNH
hPa
Press
MSL
hPa
Rain
since 9 am
mm
Dir
 
Spd
km/h
Gust
km/h
Spd
kts
Gust
kts
02/11:30pm 15.5 14.7 8.3 62 3.7 SW 2 6 1 3 1013.5 1013.3 0.0
02/11:00pm 15.8 14.3 8.5 62 3.7 WSW 6 11 3 6 1013.7 1013.5 0.0
02/10:30pm 15.4 15.0 8.2 62 3.7 CALM 0 0 0 0 1014.0 1013.8 0.0
02/10:00pm 16.4 14.3 8.4 59 4.1 NNE 9 13 5 7 1014.3 1014.1 0.0
02/09:30pm 15.7 14.1 8.2 61 3.8 NNE 6 9 3 5 1014.6 1014.3 0.0
02/09:00pm 15.4 13.5 7.7 60 3.9 ENE 7 9 4 5 1014.6 1014.3 0.0
02/08:30pm 17.4 16.2 8.0 54 4.8 SE 4 7 2 4 1014.3 1014.1 0.0
02/08:00pm 17.9 16.2 8.2 53 5.0 S 7 9 4 5 1014.3 1014.1 0.0
02/07:30pm 18.1 15.6 8.1 52 5.2 SSW 11 13 6 7 1014.3 1014.1 0.0
02/07:00pm 18.8 16.7 8.2 50 5.5 SSW 9 13 5 7 1014.1 1013.9 0.0
02/06:30pm 19.5 17.0 8.2 48 5.9 SSW 11 13 6 7 1013.8 1013.6 0.0
02/06:00pm 20.0 17.9 8.4 47 6.1 SSW 9 11 5 6 1013.4 1013.2 0.0
02/05:30pm 20.5 18.1 8.5 46 6.3 SSW 11 13 6 7 1013.1 1012.8 0.0
02/05:00pm 21.2 18.8 8.5 44 6.7 SW 11 15 6 8 1013.2 1012.9 0.0
02/04:30pm 21.6 19.6 8.5 43 7.0 SW 9 13 5 7 1013.2 1012.9 0.0
02/04:00pm 21.8 19.8 8.7 43 7.0 SW 9 15 5 8 1013.4 1013.2 0.0
02/03:30pm 22.7 20.3 8.8 41 7.5 SW 11 15 6 8 1013.5 1013.3 0.0
02/03:00pm 21.2 18.4 8.5 44 6.7 SW 13 19 7 10 1013.8 1013.6 0.0
02/02:30pm 21.5 18.3 8.4 43 7.0 WSW 15 20 8 11 1013.8 1013.6 0.0
02/02:00pm 21.8 19.0 8.7 43 7.0 W 13 22 7 12 1014.1 1013.9 0.0
02/01:30pm 22.1 18.3 8.9 43 7.1 W 19 26 10 14 1014.3 1014.1 0.0
02/01:00pm 21.5 17.6 8.7 44 6.8 W 19 26 10 14 1014.9 1014.6 0.0
02/12:30pm 21.8 17.8 9.0 44 6.9 W 20 30 11 16 1015.2 1014.9 0.0
02/12:00pm 22.1 18.2 9.6 45 6.8 NW 20 30 11 16 1015.5 1015.2 0.0
02/11:30am 21.6 17.7 9.5 46 6.6 NW 20 26 11 14 1016.1 1015.8 0.0
02/11:00am 20.1 17.5 9.4 50 5.7 NW 13 22 7 12 1016.3 1016.0 0.0
02/10:30am 17.8 15.7 8.1 53 5.0 ENE 9 11 5 6 1016.8 1016.5 0.0
02/10:00am 16.2 13.6 7.7 57 4.3 ENE 11 17 6 9 1017.4 1017.2 0.0
02/09:30am 14.7 11.6 7.3 61 3.7 E 13 19 7 10 1017.5 1017.3 0.0
02/09:00am 13.5 10.3 6.8 64 3.3 E 13 19 7 10 1017.7 1017.5 0.0
02/08:30am 12.7 8.2 6.3 65 3.1 E 19 24 10 13 1017.9 1017.7 0.0
02/08:00am 12.6 8.9 6.2 65 3.1 E 15 20 8 11 1017.8 1017.6 0.0
02/07:30am 11.7 8.4 6.2 69 2.6 ESE 13 19 7 10 1017.8 1017.6 0.0
02/07:00am 11.1 7.0 6.0 71 2.4 ESE 17 20 9 11 1017.6 1017.4 0.0
02/06:30am 11.3 6.8 6.0 70 2.5 ESE 19 24 10 13 1017.6 1017.4 0.0
02/06:00am 11.8 7.3 6.1 68 2.7 ESE 19 28 10 15 1017.5 1017.3 0.0
02/05:30am 11.9 7.4 6.0 67 2.8 ESE 19 28 10 15 1017.5 1017.3 0.0
02/05:00am 12.2 7.2 6.3 67 2.8 ESE 22 30 12 16 1017.6 1017.4 0.0
02/04:30am 12.2 7.6 6.3 67 2.8 ESE 20 30 11 16 1017.4 1017.2 0.0
02/04:00am 12.1 7.4 6.2 67 2.8 ESE 20 30 11 16 1017.7 1017.5 0.0
02/03:30am 12.0 7.3 5.9 66 2.9 ESE 20 32 11 17 1017.9 1017.7 0.0
02/03:00am 11.9 7.7 5.5 65 3.0 ESE 17 26 9 14 1018.3 1018.1 0.0
02/02:30am 11.6 7.7 5.3 65 2.9 ESE 15 20 8 11 1018.4 1018.2 0.0
02/02:00am 11.7 7.7 4.9 63 3.1 ESE 15 24 8 13 1018.6 1018.4 0.0
02/01:30am 12.0 7.2 4.7 61 3.4 ESE 19 28 10 15 1018.5 1018.3 0.0
02/01:00am 12.4 7.6 4.6 59 3.6 ESE 19 26 10 14 1018.6 1018.4 0.0
02/12:30am 12.6 8.1 4.1 56 3.9 ESE 17 24 9 13 1018.4 1018.2 0.0
02/12:00am 12.9 7.9 3.6 53 4.2 SE 19 26 10 14 1018.5 1018.3 0.0
 
Date/Time
WST
Temp
°C
App
Temp
°C
Dew
Point
Rel
Hum
%
Delta-T
°C
Wind Press
QNH
hPa
Press
MSL
hPa
Rain
since 9 am
mm
Dir
 
Spd
km/h
Gust
km/h
Spd
kts
Gust
kts
01/11:30pm 13.2 8.2 3.6 52 4.4 SE 19 24 10 13 1018.6 1018.4 0.0
01/11:00pm 13.5 8.5 3.6 51 4.5 SE 19 24 10 13 1018.6 1018.4 0.0
01/10:30pm 14.0 9.0 3.5 49 4.8 SE 19 24 10 13 1018.8 1018.6 0.0
01/10:00pm 14.0 9.3 2.9 47 5.0 SE 17 22 9 12 1018.9 1018.7 0.0
01/09:30pm 14.0 9.5 2.3 45 5.2 SE 15 22 8 12 1019.3 1019.0 0.0
01/09:00pm 14.0 9.4 1.6 43 5.4 SE 15 19 8 10 1019.3 1019.0 0.0
01/08:30pm 14.1 9.4 1.1 41 5.6 SE 15 19 8 10 1019.1 1018.9 0.0
01/08:00pm 14.4 9.7 1.0 40 5.8 SE 15 20 8 11 1019.0 1018.8 0.0
01/07:30pm 14.6 10.3 0.8 39 6.0 SE 13 15 7 8 1019.0 1018.8 0.0
01/07:00pm 15.4 11.5 1.2 38 6.2 SE 11 15 6 8 1018.9 1018.7 0.0
01/06:30pm 16.1 12.4 2.2 39 6.3 SE 11 15 6 8 1018.6 1018.4 0.0
01/06:00pm 16.7 13.1 2.7 39 6.4 SE 11 13 6 7 1018.3 1018.1 0.0
01/05:30pm 18.3 14.3 3.0 36 7.2 SE 13 17 7 9 1017.8 1017.6 0.0
01/05:00pm 19.4 15.1 3.2 34 7.7 SE 15 26 8 14 1017.7 1017.5 0.0
01/04:30pm 20.2 15.6 3.9 34 7.9 SE 17 26 9 14 1017.5 1017.3 0.0
01/04:00pm 20.7 16.2 4.3 34 8.0 SE 17 30 9 16 1017.5 1017.3 0.0
01/03:30pm 21.1 16.4 5.1 35 8.0 SE 19 26 10 14 1017.6 1017.4 0.0
01/03:00pm 20.8 16.0 4.8 35 7.9 SSE 19 26 10 14 1017.5 1017.3 0.0
01/02:30pm 20.9 16.6 5.3 36 7.8 SSE 17 32 9 17 1017.6 1017.4 0.0
01/02:00pm 21.1 16.9 5.9 37 7.7 SSE 17 26 9 14 1017.8 1017.6 0.0
01/01:30pm 20.7 16.7 5.1 36 7.7 ESE 15 28 8 15 1018.2 1018.0 0.0
01/01:00pm 19.9 16.0 5.2 38 7.3 SSE 15 26 8 14 1018.6 1018.4 0.0
01/12:30pm 20.5 16.4 6.1 39 7.3 SSE 17 26 9 14 1019.4 1019.1 0.0
01/12:00pm 19.3 14.7 5.4 40 6.9 SE 19 30 10 16 1019.9 1019.6 0.0
01/11:30am 19.3 15.6 6.1 42 6.6 SSE 15 28 8 15 1020.3 1020.0 0.0
01/11:00am 18.8 14.3 6.0 43 6.4 SE 19 26 10 14 1020.3 1020.0 0.0
01/10:30am 17.8 13.2 6.3 47 5.7 SE 20 30 11 16 1020.8 1020.5 0.0
01/10:00am 17.4 12.6 7.5 52 5.0 SE 22 32 12 17 1020.7 1020.4 0.0
01/09:30am 16.5 11.7 8.7 60 4.0 SSE 24 30 13 16 1021.1 1020.8 0.0
01/09:00am 15.9 11.8 8.6 62 3.7 SE 20 32 11 17 1021.2 1020.9 0.0
01/08:30am 14.5 10.7 9.7 73 2.5 SSE 20 30 11 16 1021.0 1020.7 0.0
01/08:00am 14.2 12.7 11.9 86 1.2 SSE 11 17 6 9 1020.9 1020.6 0.0

Other Formats:

Comma delimited format used in spreadsheet applications
http://www.bom.gov.au/fwo/IDW60801/IDW60801.95625.axf

JavaScript Object Notation format (JSON) in row-major order
http://www.bom.gov.au/fwo/IDW60801/IDW60801.95625.json